Alturas, California
Current Conditions -  °F | °C
As of 9:55 AM on Saturday 22 Nov 2014 (Local Time) from KAAT Reporting Station
Overcast Overcast  
Wind Chill: 38°   Ceiling: 1900
Heat Index: 45°   Visibility: 10mi
Dew Point: 41°   Wind: 17mph
Humidity: 86%   Direction: 270°W
Pressure: 29.93"   Gusts: 23mph
Location:  41.49°N, 120.54°W
Report Text: KAAT 221755Z AUTO 27015G20KT 10SM BKN019 BKN029 OVC035 07/05 A2993 RMK AO2 RAB00E36 SLP128 P0001 60002 T00720050 10078 20044 53017
Loading
Personal Weather Stations






























Interactive Weather Map New forecast layout! Learn more

10-Day Weather Forecast

Advertisements
Track Severe Weather on mobile